sensor_id;sensor_type;location;lat;lon;timestamp;pressure;altitude;pressure_sealevel;temperature;humidity
60355;BME280;46198;51.464;-0.066;2023-04-04T00:01:49;102850.97;;;3.90;100.00
60355;BME280;46198;51.464;-0.066;2023-04-04T00:07:37;102843.53;;;3.83;100.00
60355;BME280;46198;51.464;-0.066;2023-04-04T00:10:30;102836.72;;;3.78;100.00
60355;BME280;46198;51.464;-0.066;2023-04-04T00:12:58;102836.97;;;3.75;100.00
60355;BME280;46198;51.464;-0.066;2023-04-04T00:15:27;102838.31;;;3.70;100.00
60355;BME280;46198;51.464;-0.066;2023-04-04T00:17:55;102834.31;;;3.64;100.00
60355;BME280;46198;51.464;-0.066;2023-04-04T00:20:23;102836.50;;;3.59;100.00
60355;BME280;46198;51.464;-0.066;2023-04-04T00:22:53;102832.50;;;3.53;100.00
60355;BME280;46198;51.464;-0.066;2023-04-04T00:25:21;102822.44;;;3.55;100.00
60355;BME280;46198;51.464;-0.066;2023-04-04T00:27:49;102820.28;;;3.49;100.00
60355;BME280;46198;51.464;-0.066;2023-04-04T00:30:17;102807.84;;;3.48;100.00
60355;BME280;46198;51.464;-0.066;2023-04-04T00:32:45;102813.72;;;3.42;100.00
60355;BME280;46198;51.464;-0.066;2023-04-04T00:35:13;102811.72;;;3.44;100.00
60355;BME280;46198;51.464;-0.066;2023-04-04T00:37:41;102807.72;;;3.39;100.00
60355;BME280;46198;51.464;-0.066;2023-04-04T00:40:11;102810.78;;;3.34;100.00
60355;BME280;46198;51.464;-0.066;2023-04-04T00:42:39;102801.50;;;3.27;100.00
60355;BME280;46198;51.464;-0.066;2023-04-04T00:45:08;102801.50;;;3.27;100.00
60355;BME280;46198;51.464;-0.066;2023-04-04T00:47:37;102809.56;;;3.27;100.00
60355;BME280;46198;51.464;-0.066;2023-04-04T00:50:07;102805.31;;;3.24;100.00
60355;BME280;46198;51.464;-0.066;2023-04-04T00:56:43;102800.91;;;3.12;100.00
60355;BME280;46198;51.464;-0.066;2023-04-04T00:59:12;102798.34;;;3.10;100.00
60355;BME280;46198;51.464;-0.066;2023-04-04T01:01:42;102801.03;;;3.10;100.00
60355;BME280;46198;51.464;-0.066;2023-04-04T01:04:10;102803.97;;;3.07;100.00
60355;BME280;46198;51.464;-0.066;2023-04-04T01:06:39;102795.44;;;3.02;100.00
60355;BME280;46198;51.464;-0.066;2023-04-04T01:09:08;102797.38;;;3.00;100.00
60355;BME280;46198;51.464;-0.066;2023-04-04T01:11:37;102799.31;;;2.98;100.00
60355;BME280;46198;51.464;-0.066;2023-04-04T01:14:07;102800.31;;;2.97;100.00
60355;BME280;46198;51.464;-0.066;2023-04-04T01:16:35;102794.44;;;2.92;100.00
60355;BME280;46198;51.464;-0.066;2023-04-04T01:19:05;102789.56;;;2.86;100.00
60355;BME280;46198;51.464;-0.066;2023-04-04T01:21:36;102798.56;;;2.85;100.00
60355;BME280;46198;51.464;-0.066;2023-04-04T01:24:05;102790.06;;;2.80;100.00
60355;BME280;46198;51.464;-0.066;2023-04-04T01:26:44;102795.63;;;2.77;100.00
60355;BME280;46198;51.464;-0.066;2023-04-04T01:29:12;102792.84;;;2.78;100.00
60355;BME280;46198;51.464;-0.066;2023-04-04T01:31:43;102794.19;;;2.73;100.00
60355;BME280;46198;51.464;-0.066;2023-04-04T01:34:19;102785.53;;;2.69;100.00
60355;BME280;46198;51.464;-0.066;2023-04-04T01:36:56;102782.97;;;2.67;100.00
60355;BME280;46198;51.464;-0.066;2023-04-04T01:39:30;102777.94;;;2.63;100.00
60355;BME280;46198;51.464;-0.066;2023-04-04T01:42:01;102778.19;;;2.49;100.00
60355;BME280;46198;51.464;-0.066;2023-04-04T01:44:30;102776.34;;;2.49;100.00
60355;BME280;46198;51.464;-0.066;2023-04-04T01:46:59;102776.34;;;2.49;100.00
60355;BME280;46198;51.464;-0.066;2023-04-04T01:49:28;102770.88;;;2.51;100.00
60355;BME280;46198;51.464;-0.066;2023-04-04T01:51:57;102766.38;;;2.51;100.00
60355;BME280;46198;51.464;-0.066;2023-04-04T01:54:26;102777.19;;;2.50;100.00
60355;BME280;46198;51.464;-0.066;2023-04-04T01:56:54;102775.75;;;2.46;100.00
60355;BME280;46198;51.464;-0.066;2023-04-04T01:59:25;102773.41;;;2.41;100.00
60355;BME280;46198;51.464;-0.066;2023-04-04T02:01:53;102786.94;;;2.39;100.00
60355;BME280;46198;51.464;-0.066;2023-04-04T02:04:21;102785.47;;;2.35;100.00
60355;BME280;46198;51.464;-0.066;2023-04-04T02:06:49;102787.91;;;2.38;100.00
60355;BME280;46198;51.464;-0.066;2023-04-04T02:09:18;102787.41;;;2.33;100.00
60355;BME280;46198;51.464;-0.066;2023-04-04T02:11:46;102786.03;;;2.28;100.00
60355;BME280;46198;51.464;-0.066;2023-04-04T02:14:15;102778.25;;;2.25;100.00
60355;BME280;46198;51.464;-0.066;2023-04-04T02:16:44;102785.53;;;2.22;100.00
60355;BME280;46198;51.464;-0.066;2023-04-04T02:19:12;102777.72;;;2.19;100.00
60355;BME280;46198;51.464;-0.066;2023-04-04T02:21:40;102775.28;;;2.16;100.00
60355;BME280;46198;51.464;-0.066;2023-04-04T02:24:09;102773.47;;;2.17;100.00
60355;BME280;46198;51.464;-0.066;2023-04-04T02:26:37;102778.94;;;2.15;100.00
60355;BME280;46198;51.464;-0.066;2023-04-04T02:29:05;102778.81;;;2.17;100.00
60355;BME280;46198;51.464;-0.066;2023-04-04T02:31:34;102778.44;;;2.10;100.00
60355;BME280;46198;51.464;-0.066;2023-04-04T02:34:03;102772.34;;;2.08;100.00
60355;BME280;46198;51.464;-0.066;2023-04-04T02:36:32;102772.47;;;2.07;100.00
60355;BME280;46198;51.464;-0.066;2023-04-04T02:39:01;102770.03;;;2.04;100.00
60355;BME280;46198;51.464;-0.066;2023-04-04T02:41:30;102777.31;;;2.02;100.00
60355;BME280;46198;51.464;-0.066;2023-04-04T02:43:59;102772.31;;;1.97;100.00
60355;BME280;46198;51.464;-0.066;2023-04-04T02:46:27;102765.97;;;1.98;100.00
60355;BME280;46198;51.464;-0.066;2023-04-04T02:49:00;102770.72;;;1.94;100.00
60355;BME280;46198;51.464;-0.066;2023-04-04T02:51:31;102781.44;;;1.94;100.00
60355;BME280;46198;51.464;-0.066;2023-04-04T02:54:00;102785.19;;;1.92;100.00
60355;BME280;46198;51.464;-0.066;2023-04-04T02:56:36;102791.75;;;1.88;100.00
60355;BME280;46198;51.464;-0.066;2023-04-04T02:59:04;102790.25;;;1.84;100.00
60355;BME280;46198;51.464;-0.066;2023-04-04T03:01:33;102789.50;;;1.82;100.00
60355;BME280;46198;51.464;-0.066;2023-04-04T03:04:03;102783.69;;;1.76;100.00
60355;BME280;46198;51.464;-0.066;2023-04-04T03:06:34;102781.09;;;1.75;100.00
60355;BME280;46198;51.464;-0.066;2023-04-04T03:09:03;102780.47;;;1.71;100.00
60355;BME280;46198;51.464;-0.066;2023-04-04T03:11:31;102778.75;;;1.70;100.00
60355;BME280;46198;51.464;-0.066;2023-04-04T03:13:59;102788.75;;;1.68;100.00
60355;BME280;46198;51.464;-0.066;2023-04-04T03:16:33;102793.13;;;1.69;100.00
60355;BME280;46198;51.464;-0.066;2023-04-04T03:19:01;102789.94;;;1.64;100.00
60355;BME280;46198;51.464;-0.066;2023-04-04T03:21:29;102782.00;;;1.63;100.00
60355;BME280;46198;51.464;-0.066;2023-04-04T03:23:59;102789.19;;;1.62;100.00
60355;BME280;46198;51.464;-0.066;2023-04-04T03:26:27;102786.72;;;1.59;100.00
60355;BME280;46198;51.464;-0.066;2023-04-04T03:28:55;102790.63;;;1.55;100.00
60355;BME280;46198;51.464;-0.066;2023-04-04T03:31:24;102787.19;;;1.53;100.00
60355;BME280;46198;51.464;-0.066;2023-04-04T03:33:52;102779.25;;;1.51;100.00
60355;BME280;46198;51.464;-0.066;2023-04-04T03:36:21;102787.50;;;1.48;100.00
60355;BME280;46198;51.464;-0.066;2023-04-04T03:38:49;102792.03;;;1.48;100.00
60355;BME280;46198;51.464;-0.066;2023-04-04T03:41:19;102793.00;;;1.47;100.00
60355;BME280;46198;51.464;-0.066;2023-04-04T03:43:47;102793.94;;;1.46;100.00
60355;BME280;46198;51.464;-0.066;2023-04-04T03:46:16;102800.50;;;1.42;100.00
60355;BME280;46198;51.464;-0.066;2023-04-04T03:48:45;102798.16;;;1.37;100.00
60355;BME280;46198;51.464;-0.066;2023-04-04T03:51:21;102793.66;;;1.38;100.00
60355;BME280;46198;51.464;-0.066;2023-04-04T03:53:50;102788.44;;;1.36;100.00
60355;BME280;46198;51.464;-0.066;2023-04-04T03:56:19;102786.81;;;1.33;100.00
60355;BME280;46198;51.464;-0.066;2023-04-04T03:58:47;102790.13;;;1.37;100.00
60355;BME280;46198;51.464;-0.066;2023-04-04T04:01:19;102794.00;;;1.33;100.00
60355;BME280;46198;51.464;-0.066;2023-04-04T04:03:47;102783.31;;;1.33;100.00
60355;BME280;46198;51.464;-0.066;2023-04-04T04:06:16;102786.94;;;1.32;100.00
60355;BME280;46198;51.464;-0.066;2023-04-04T04:08:45;102785.22;;;1.31;100.00
60355;BME280;46198;51.464;-0.066;2023-04-04T04:11:13;102779.03;;;1.30;100.00
60355;BME280;46198;51.464;-0.066;2023-04-04T04:13:42;102791.53;;;1.30;100.00
60355;BME280;46198;51.464;-0.066;2023-04-04T04:16:11;102788.31;;;1.25;100.00
60355;BME280;46198;51.464;-0.066;2023-04-04T04:18:39;102789.44;;;1.22;100.00
60355;BME280;46198;51.464;-0.066;2023-04-04T04:21:11;102794.78;;;1.22;100.00
60355;BME280;46198;51.464;-0.066;2023-04-04T04:23:41;102799.47;;;1.19;100.00
60355;BME280;46198;51.464;-0.066;2023-04-04T04:26:09;102802.38;;;1.16;100.00
60355;BME280;46198;51.464;-0.066;2023-04-04T04:28:38;102795.19;;;1.16;100.00
60355;BME280;46198;51.464;-0.066;2023-04-04T04:31:12;102800.78;;;1.13;100.00
60355;BME280;46198;51.464;-0.066;2023-04-04T04:33:45;102798.22;;;1.12;100.00
60355;BME280;46198;51.464;-0.066;2023-04-04T04:36:16;102800.03;;;1.11;100.00
60355;BME280;46198;51.464;-0.066;2023-04-04T04:38:51;102802.69;;;1.11;100.00
60355;BME280;46198;51.464;-0.066;2023-04-04T04:41:20;102800.03;;;1.11;100.00
60355;BME280;46198;51.464;-0.066;2023-04-04T04:43:50;102789.44;;;1.09;100.00
60355;BME280;46198;51.464;-0.066;2023-04-04T04:46:20;102790.53;;;1.07;100.00
60355;BME280;46198;51.464;-0.066;2023-04-04T04:48:49;102790.75;;;1.04;100.00
60355;BME280;46198;51.464;-0.066;2023-04-04T04:51:23;102797.78;;;1.05;100.00
60355;BME280;46198;51.464;-0.066;2023-04-04T04:53:53;102793.63;;;1.01;100.00
60355;BME280;46198;51.464;-0.066;2023-04-04T04:56:23;102792.75;;;1.00;100.00
60355;BME280;46198;51.464;-0.066;2023-04-04T04:58:54;102797.38;;;0.98;100.00
60355;BME280;46198;51.464;-0.066;2023-04-04T05:01:26;102787.75;;;0.96;100.00
60355;BME280;46198;51.464;-0.066;2023-04-04T05:03:55;102790.44;;;0.96;100.00
60355;BME280;46198;51.464;-0.066;2023-04-04T05:06:35;102790.53;;;0.94;100.00
60355;BME280;46198;51.464;-0.066;2023-04-04T05:09:07;102779.81;;;0.94;100.00
60355;BME280;46198;51.464;-0.066;2023-04-04T05:11:36;102788.94;;;0.92;100.00
60355;BME280;46198;51.464;-0.066;2023-04-04T05:14:07;102784.78;;;0.87;100.00
60355;BME280;46198;51.464;-0.066;2023-04-04T05:16:44;102781.34;;;0.85;100.00
60355;BME280;46198;51.464;-0.066;2023-04-04T05:19:15;102786.69;;;0.85;100.00
60355;BME280;46198;51.464;-0.066;2023-04-04T05:21:48;102792.03;;;0.85;100.00
60355;BME280;46198;51.464;-0.066;2023-04-04T05:24:26;102790.53;;;0.81;100.00
60355;BME280;46198;51.464;-0.066;2023-04-04T05:26:55;102794.94;;;0.82;100.00
60355;BME280;46198;51.464;-0.066;2023-04-04T05:29:23;102785.53;;;0.77;100.00
60355;BME280;46198;51.464;-0.066;2023-04-04T05:31:53;102787.13;;;0.79;100.00
60355;BME280;46198;51.464;-0.066;2023-04-04T05:34:22;102788.06;;;0.78;100.00
60355;BME280;46198;51.464;-0.066;2023-04-04T05:36:50;102799.75;;;0.77;100.00
60355;BME280;46198;51.464;-0.066;2023-04-04T05:39:18;102805.00;;;0.79;100.00
60355;BME280;46198;51.464;-0.066;2023-04-04T05:41:59;102801.66;;;0.75;100.00
60355;BME280;46198;51.464;-0.066;2023-04-04T05:44:30;102801.44;;;0.78;100.00
60355;BME280;46198;51.464;-0.066;2023-04-04T05:46:59;102808.63;;;0.78;100.00
60355;BME280;46198;51.464;-0.066;2023-04-04T05:49:28;102806.06;;;0.76;100.00
60355;BME280;46198;51.464;-0.066;2023-04-04T05:51:58;102804.03;;;0.80;100.00
60355;BME280;46198;51.464;-0.066;2023-04-04T05:54:27;102804.88;;;0.80;100.00
60355;BME280;46198;51.464;-0.066;2023-04-04T05:56:58;102806.38;;;0.84;100.00
60355;BME280;46198;51.464;-0.066;2023-04-04T05:59:49;102816.88;;;0.87;100.00
60355;BME280;46198;51.464;-0.066;2023-04-04T06:02:19;102819.31;;;0.91;100.00
60355;BME280;46198;51.464;-0.066;2023-04-04T06:04:57;102811.28;;;0.91;100.00
60355;BME280;46198;51.464;-0.066;2023-04-04T06:07:31;102815.56;;;0.93;100.00
60355;BME280;46198;51.464;-0.066;2023-04-04T06:09:59;102818.88;;;0.97;100.00
60355;BME280;46198;51.464;-0.066;2023-04-04T06:12:28;102825.84;;;0.99;100.00
60355;BME280;46198;51.464;-0.066;2023-04-04T06:14:56;102823.91;;;1.01;100.00
60355;BME280;46198;51.464;-0.066;2023-04-04T06:17:25;102815.44;;;1.07;100.00
60355;BME280;46198;51.464;-0.066;2023-04-04T06:19:54;102819.81;;;1.08;100.00
60355;BME280;46198;51.464;-0.066;2023-04-04T06:22:22;102825.94;;;1.10;100.00
60355;BME280;46198;51.464;-0.066;2023-04-04T06:24:52;102828.28;;;1.15;100.00
60355;BME280;46198;51.464;-0.066;2023-04-04T06:27:23;102825.28;;;1.20;100.00
60355;BME280;46198;51.464;-0.066;2023-04-04T06:29:51;102833.72;;;1.26;100.00
60355;BME280;46198;51.464;-0.066;2023-04-04T06:32:21;102820.78;;;1.33;100.00
60355;BME280;46198;51.464;-0.066;2023-04-04T06:34:50;102828.34;;;1.39;100.00
60355;BME280;46198;51.464;-0.066;2023-04-04T06:37:30;102827.81;;;1.47;100.00
60355;BME280;46198;51.464;-0.066;2023-04-04T06:40:08;102829.03;;;1.54;100.00
60355;BME280;46198;51.464;-0.066;2023-04-04T06:42:36;102835.69;;;1.61;100.00
60355;BME280;46198;51.464;-0.066;2023-04-04T06:45:07;102842.50;;;1.65;100.00
60355;BME280;46198;51.464;-0.066;2023-04-04T06:47:35;102838.41;;;1.72;100.00
60355;BME280;46198;51.464;-0.066;2023-04-04T06:50:05;102841.38;;;1.81;100.00
60355;BME280;46198;51.464;-0.066;2023-04-04T06:52:34;102849.72;;;1.89;100.00
60355;BME280;46198;51.464;-0.066;2023-04-04T06:55:06;102841.88;;;1.98;100.00
60355;BME280;46198;51.464;-0.066;2023-04-04T06:57:35;102849.31;;;2.06;100.00
60355;BME280;46198;51.464;-0.066;2023-04-04T07:00:06;102850.09;;;2.19;100.00
60355;BME280;46198;51.464;-0.066;2023-04-04T07:02:34;102850.88;;;2.33;100.00
60355;BME280;46198;51.464;-0.066;2023-04-04T07:05:05;102853.66;;;2.55;100.00
60355;BME280;46198;51.464;-0.066;2023-04-04T07:07:34;102847.13;;;2.93;100.00
60355;BME280;46198;51.464;-0.066;2023-04-04T07:10:02;102847.75;;;3.30;100.00
60355;BME280;46198;51.464;-0.066;2023-04-04T07:12:30;102842.59;;;3.72;100.00
60355;BME280;46198;51.464;-0.066;2023-04-04T07:14:59;102837.03;;;3.96;100.00
60355;BME280;46198;51.464;-0.066;2023-04-04T07:17:27;102842.34;;;4.40;100.00
60355;BME280;46198;51.464;-0.066;2023-04-04T07:19:55;102840.31;;;4.74;100.00
60355;BME280;46198;51.464;-0.066;2023-04-04T07:22:24;102839.66;;;5.13;100.00
60355;BME280;46198;51.464;-0.066;2023-04-04T07:24:53;102830.97;;;5.30;100.00
60355;BME280;46198;51.464;-0.066;2023-04-04T07:27:22;102840.00;;;5.69;100.00
60355;BME280;46198;51.464;-0.066;2023-04-04T07:29:50;102819.50;;;6.07;100.00
60355;BME280;46198;51.464;-0.066;2023-04-04T07:32:18;102820.38;;;6.27;100.00
60355;BME280;46198;51.464;-0.066;2023-04-04T07:34:48;102819.78;;;6.53;100.00
60355;BME280;46198;51.464;-0.066;2023-04-04T07:37:16;102824.72;;;7.14;100.00
60355;BME280;46198;51.464;-0.066;2023-04-04T07:39:45;102820.78;;;7.36;100.00
60355;BME280;46198;51.464;-0.066;2023-04-04T07:42:15;102817.72;;;7.49;100.00
60355;BME280;46198;51.464;-0.066;2023-04-04T07:44:48;102804.09;;;7.86;100.00
60355;BME280;46198;51.464;-0.066;2023-04-04T07:47:17;102804.56;;;7.99;100.00
60355;BME280;46198;51.464;-0.066;2023-04-04T07:49:45;102803.19;;;8.13;100.00
60355;BME280;46198;51.464;-0.066;2023-04-04T07:52:13;102803.50;;;8.28;100.00
60355;BME280;46198;51.464;-0.066;2023-04-04T07:54:41;102794.91;;;8.51;100.00
60355;BME280;46198;51.464;-0.066;2023-04-04T07:57:10;102796.31;;;8.63;100.00
60355;BME280;46198;51.464;-0.066;2023-04-04T07:59:38;102790.66;;;9.08;100.00
60355;BME280;46198;51.464;-0.066;2023-04-04T08:02:09;102786.81;;;9.19;100.00
60355;BME280;46198;51.464;-0.066;2023-04-04T08:04:37;102795.47;;;9.82;100.00
60355;BME280;46198;51.464;-0.066;2023-04-04T08:07:05;102782.47;;;10.18;100.00
60355;BME280;46198;51.464;-0.066;2023-04-04T08:09:33;102792.31;;;10.11;100.00
60355;BME280;46198;51.464;-0.066;2023-04-04T08:12:02;102779.94;;;10.33;100.00
60355;BME280;46198;51.464;-0.066;2023-04-04T08:14:33;102772.16;;;10.38;100.00
60355;BME280;46198;51.464;-0.066;2023-04-04T08:17:01;102771.44;;;10.60;100.00
60355;BME280;46198;51.464;-0.066;2023-04-04T08:19:29;102782.28;;;10.60;100.00
60355;BME280;46198;51.464;-0.066;2023-04-04T08:21:57;102779.75;;;10.02;100.00
60355;BME280;46198;51.464;-0.066;2023-04-04T08:24:25;102784.50;;;10.65;100.00
60355;BME280;46198;51.464;-0.066;2023-04-04T08:26:54;102769.34;;;10.87;100.00
60355;BME280;46198;51.464;-0.066;2023-04-04T08:29:32;102776.38;;;11.13;100.00
60355;BME280;46198;51.464;-0.066;2023-04-04T08:32:01;102770.34;;;10.94;100.00
60355;BME280;46198;51.464;-0.066;2023-04-04T08:34:29;102776.84;;;10.69;100.00
60355;BME280;46198;51.464;-0.066;2023-04-04T08:36:57;102775.44;;;10.89;100.00
60355;BME280;46198;51.464;-0.066;2023-04-04T08:39:25;102768.50;;;10.78;100.00
60355;BME280;46198;51.464;-0.066;2023-04-04T08:42:00;102769.81;;;11.38;100.00
60355;BME280;46198;51.464;-0.066;2023-04-04T08:44:33;102767.22;;;12.22;100.00
60355;BME280;46198;51.464;-0.066;2023-04-04T08:47:04;102765.78;;;11.88;99.06
60355;BME280;46198;51.464;-0.066;2023-04-04T08:49:36;102759.41;;;11.42;96.89
60355;BME280;46198;51.464;-0.066;2023-04-04T08:52:04;102759.81;;;11.62;97.60
60355;BME280;46198;51.464;-0.066;2023-04-04T08:54:33;102763.59;;;11.84;93.45
60355;BME280;46198;51.464;-0.066;2023-04-04T08:57:02;102768.72;;;11.79;88.21
60355;BME280;46198;51.464;-0.066;2023-04-04T08:59:30;102763.38;;;11.85;85.02
60355;BME280;46198;51.464;-0.066;2023-04-04T09:02:11;102771.34;;;12.18;86.38
60355;BME280;46198;51.464;-0.066;2023-04-04T09:04:42;102762.91;;;12.28;83.65
60355;BME280;46198;51.464;-0.066;2023-04-04T09:07:29;102767.53;;;12.04;80.58
60355;BME280;46198;51.464;-0.066;2023-04-04T09:09:58;102772.03;;;11.97;77.22
60355;BME280;46198;51.464;-0.066;2023-04-04T09:12:27;102762.19;;;12.34;75.57
60355;BME280;46198;51.464;-0.066;2023-04-04T09:14:59;102765.66;;;12.28;69.91
60355;BME280;46198;51.464;-0.066;2023-04-04T09:17:30;102762.78;;;12.21;66.68
60355;BME280;46198;51.464;-0.066;2023-04-04T09:20:00;102766.69;;;11.81;65.68
60355;BME280;46198;51.464;-0.066;2023-04-04T09:22:30;102762.03;;;12.12;71.62
60355;BME280;46198;51.464;-0.066;2023-04-04T09:24:58;102772.44;;;12.09;61.42
60355;BME280;46198;51.464;-0.066;2023-04-04T09:27:26;102775.84;;;12.49;62.37
60355;BME280;46198;51.464;-0.066;2023-04-04T09:29:59;102771.09;;;12.05;62.13
60355;BME280;46198;51.464;-0.066;2023-04-04T09:32:33;102769.94;;;12.60;62.65
60355;BME280;46198;51.464;-0.066;2023-04-04T09:35:01;102772.59;;;12.68;57.89
60355;BME280;46198;51.464;-0.066;2023-04-04T09:37:29;102768.44;;;12.72;60.85
60355;BME280;46198;51.464;-0.066;2023-04-04T09:39:57;102772.97;;;12.65;57.18
60355;BME280;46198;51.464;-0.066;2023-04-04T09:42:25;102767.94;;;12.54;53.39
60355;BME280;46198;51.464;-0.066;2023-04-04T09:44:54;102766.28;;;12.82;51.11
60355;BME280;46198;51.464;-0.066;2023-04-04T09:47:23;102758.84;;;12.61;49.63
60355;BME280;46198;51.464;-0.066;2023-04-04T09:49:58;102760.50;;;12.48;52.70
60355;BME280;46198;51.464;-0.066;2023-04-04T09:52:30;102753.19;;;12.48;50.55
60355;BME280;46198;51.464;-0.066;2023-04-04T09:55:02;102753.13;;;13.01;50.37
60355;BME280;46198;51.464;-0.066;2023-04-04T09:57:32;102744.66;;;12.66;50.67
60355;BME280;46198;51.464;-0.066;2023-04-04T10:00:02;102745.69;;;12.80;51.16
60355;BME280;46198;51.464;-0.066;2023-04-04T10:02:36;102744.03;;;12.79;47.06
60355;BME280;46198;51.464;-0.066;2023-04-04T10:05:08;102735.63;;;12.80;46.02
60355;BME280;46198;51.464;-0.066;2023-04-04T10:07:38;102735.34;;;12.75;46.85
60355;BME280;46198;51.464;-0.066;2023-04-04T10:10:08;102731.31;;;12.86;48.04
60355;BME280;46198;51.464;-0.066;2023-04-04T10:12:36;102727.84;;;12.77;49.48
60355;BME280;46198;51.464;-0.066;2023-04-04T10:15:05;102728.09;;;12.53;49.66
60355;BME280;46198;51.464;-0.066;2023-04-04T10:17:36;102733.22;;;12.71;49.19
60355;BME280;46198;51.464;-0.066;2023-04-04T10:20:07;102721.81;;;12.82;49.34
60355;BME280;46198;51.464;-0.066;2023-04-04T10:22:36;102717.69;;;12.71;48.67
60355;BME280;46198;51.464;-0.066;2023-04-04T10:25:06;102714.88;;;12.79;49.42
60355;BME280;46198;51.464;-0.066;2023-04-04T10:27:35;102720.13;;;12.81;50.01
60355;BME280;46198;51.464;-0.066;2023-04-04T10:30:06;102718.34;;;13.03;47.20
60355;BME280;46198;51.464;-0.066;2023-04-04T10:32:42;102714.50;;;12.68;50.75
60355;BME280;46198;51.464;-0.066;2023-04-04T10:35:18;102714.28;;;12.99;51.55
60355;BME280;46198;51.464;-0.066;2023-04-04T10:37:54;102712.91;;;13.24;47.94
60355;BME280;46198;51.464;-0.066;2023-04-04T10:40:25;102720.91;;;13.41;48.95
60355;BME280;46198;51.464;-0.066;2023-04-04T10:42:55;102713.09;;;13.38;50.21
60355;BME280;46198;51.464;-0.066;2023-04-04T10:45:25;102698.94;;;13.13;49.41
60355;BME280;46198;51.464;-0.066;2023-04-04T10:47:54;102704.16;;;13.44;49.05
60355;BME280;46198;51.464;-0.066;2023-04-04T10:50:24;102703.66;;;13.55;50.86
60355;BME280;46198;51.464;-0.066;2023-04-04T10:52:54;102705.84;;;13.45;52.23
60355;BME280;46198;51.464;-0.066;2023-04-04T10:55:24;102702.84;;;13.40;50.79
60355;BME280;46198;51.464;-0.066;2023-04-04T10:57:53;102691.81;;;13.91;47.42
60355;BME280;46198;51.464;-0.066;2023-04-04T11:00:22;102690.50;;;13.87;50.85
60355;BME280;46198;51.464;-0.066;2023-04-04T11:02:53;102681.75;;;13.70;47.99
60355;BME280;46198;51.464;-0.066;2023-04-04T11:05:25;102680.19;;;13.61;49.68
60355;BME280;46198;51.464;-0.066;2023-04-04T11:07:56;102677.22;;;14.05;48.06
60355;BME280;46198;51.464;-0.066;2023-04-04T11:10:35;102673.91;;;14.10;47.06
60355;BME280;46198;51.464;-0.066;2023-04-04T11:13:08;102672.13;;;13.95;45.88
60355;BME280;46198;51.464;-0.066;2023-04-04T11:15:52;102673.13;;;13.94;44.83
60355;BME280;46198;51.464;-0.066;2023-04-04T11:18:45;102667.44;;;14.17;45.45
60355;BME280;46198;51.464;-0.066;2023-04-04T11:21:17;102671.06;;;14.25;44.37
60355;BME280;46198;51.464;-0.066;2023-04-04T11:24:12;102680.31;;;14.24;44.67
60355;BME280;46198;51.464;-0.066;2023-04-04T11:26:41;102680.19;;;14.10;45.03
60355;BME280;46198;51.464;-0.066;2023-04-04T11:29:19;102667.81;;;14.43;47.58
60355;BME280;46198;51.464;-0.066;2023-04-04T11:31:48;102661.00;;;14.60;46.39
60355;BME280;46198;51.464;-0.066;2023-04-04T11:34:29;102665.59;;;14.94;45.64
60355;BME280;46198;51.464;-0.066;2023-04-04T11:37:13;102663.97;;;15.20;46.75
60355;BME280;46198;51.464;-0.066;2023-04-04T11:39:46;102661.47;;;15.18;43.40
60355;BME280;46198;51.464;-0.066;2023-04-04T11:42:19;102662.97;;;15.21;47.87
60355;BME280;46198;51.464;-0.066;2023-04-04T11:45:00;102657.31;;;15.49;42.71
60355;BME280;46198;51.464;-0.066;2023-04-04T11:47:30;102656.94;;;15.59;43.28
60355;BME280;46198;51.464;-0.066;2023-04-04T11:49:59;102659.41;;;15.47;41.45
60355;BME280;46198;51.464;-0.066;2023-04-04T11:52:33;102657.41;;;15.69;41.04
60355;BME280;46198;51.464;-0.066;2023-04-04T11:55:02;102660.97;;;15.69;40.71
60355;BME280;46198;51.464;-0.066;2023-04-04T11:57:41;102656.97;;;14.97;42.84
60355;BME280;46198;51.464;-0.066;2023-04-04T12:00:10;102651.78;;;14.68;41.91
60355;BME280;46198;51.464;-0.066;2023-04-04T12:02:41;102653.97;;;15.54;43.53
60355;BME280;46198;51.464;-0.066;2023-04-04T12:05:10;102660.97;;;15.69;42.84
60355;BME280;46198;51.464;-0.066;2023-04-04T12:07:40;102651.72;;;15.77;40.71
60355;BME280;46198;51.464;-0.066;2023-04-04T12:10:09;102653.50;;;16.50;42.06
60355;BME280;46198;51.464;-0.066;2023-04-04T12:12:38;102650.63;;;16.31;39.54
60355;BME280;46198;51.464;-0.066;2023-04-04T12:15:08;102656.25;;;16.56;39.70
60355;BME280;46198;51.464;-0.066;2023-04-04T12:17:44;102650.25;;;16.86;40.14
60355;BME280;46198;51.464;-0.066;2023-04-04T12:20:15;102658.50;;;17.24;40.04
60355;BME280;46198;51.464;-0.066;2023-04-04T12:22:47;102646.56;;;17.44;39.33
60355;BME280;46198;51.464;-0.066;2023-04-04T12:25:16;102639.25;;;17.31;38.01
60355;BME280;46198;51.464;-0.066;2023-04-04T12:27:46;102636.97;;;17.53;37.22
60355;BME280;46198;51.464;-0.066;2023-04-04T12:30:14;102630.38;;;17.92;36.42
60355;BME280;46198;51.464;-0.066;2023-04-04T12:32:44;102623.00;;;18.48;38.49
60355;BME280;46198;51.464;-0.066;2023-04-04T12:35:13;102619.22;;;18.49;34.67
60355;BME280;46198;51.464;-0.066;2023-04-04T12:37:59;102620.25;;;19.03;40.97
60355;BME280;46198;51.464;-0.066;2023-04-04T12:40:30;102621.09;;;19.16;37.07
60355;BME280;46198;51.464;-0.066;2023-04-04T12:42:59;102623.56;;;17.95;35.59
60355;BME280;46198;51.464;-0.066;2023-04-04T12:45:27;102613.41;;;18.57;38.53
60355;BME280;46198;51.464;-0.066;2023-04-04T12:47:56;102615.00;;;18.47;33.39
60355;BME280;46198;51.464;-0.066;2023-04-04T12:50:27;102614.94;;;17.91;35.68
60355;BME280;46198;51.464;-0.066;2023-04-04T12:53:00;102600.88;;;18.25;35.66
60355;BME280;46198;51.464;-0.066;2023-04-04T12:55:49;102603.75;;;18.48;33.55
60355;BME280;46198;51.464;-0.066;2023-04-04T12:58:20;102600.28;;;19.08;38.34
60355;BME280;46198;51.464;-0.066;2023-04-04T13:00:48;102599.75;;;18.99;36.10
60355;BME280;46198;51.464;-0.066;2023-04-04T13:03:19;102603.75;;;18.85;37.72
60355;BME280;46198;51.464;-0.066;2023-04-04T13:05:48;102595.50;;;18.85;33.88